Time;durP1;ratioP1;P1;durP2;ratioP2;P2;SDS_P1;SDS_P2;PMS_P1;PMS_P2;Temp;Humidity;BMP_temperature;BMP_pressure;BME280_temperature;BME280_humidity;BME280_pressure;Samples;Min_cycle;Max_cycle;Signal;HPM_P1;HPM_P2
2021/09/05 00:00:59;;;;;;;6.97;6.47;;;;;;;29.04;63.97;100821.59;5060755;27;64497;-38
2021/09/05 00:03:32;;;;;;;6.55;6.05;;;;;;;29.09;65.04;100829.91;5062147;27;70113;-37
2021/09/05 00:06:03;;;;;;;;;;;;;;;28.89;66.17;100840.66;5066536;27;66551;-38
2021/09/05 00:08:34;;;;;;;9.85;7.47;;;;;;;29.16;65.53;100836.13;5083593;27;70459;-37
2021/09/05 00:11:06;;;;;;;8.05;7.30;;;;;;;29.27;65.34;100842.75;5068160;27;66017;-38
2021/09/05 00:13:38;;;;;;;11.27;8.00;;;;;;;29.06;65.62;100808.69;5067917;27;70058;-38
2021/09/05 00:16:09;;;;;;;9.43;7.57;;;;;;;29.29;66.01;100848.78;5069947;27;65728;-37
2021/09/05 00:18:41;;;;;;;13.40;9.00;;;;;;;29.33;65.05;100842.72;5064434;27;69091;-38
2021/09/05 00:21:12;;;;;;;13.77;9.07;;;;;;;29.36;65.83;100853.16;5068326;27;65408;-37
2021/09/05 00:23:44;;;;;;;19.87;8.90;;;;;;;29.40;65.80;100854.38;5072000;27;68914;-37
2021/09/05 00:26:15;;;;;;;12.07;9.25;;;;;;;29.38;66.94;100855.63;5067403;27;65618;-37
2021/09/05 00:28:47;;;;;;;9.35;8.48;;;;;;;29.39;66.93;100868.94;5067637;27;69675;-37
2021/09/05 00:31:21;;;;;;;13.57;8.45;;;;;;;29.45;66.49;100879.91;5065918;27;64777;-37
2021/09/05 00:33:58;;;;;;;16.05;8.40;;;;;;;29.45;66.52;100882.63;5052338;28;70336;-37
2021/09/05 00:36:38;;;;;;;9.85;8.77;;;;;;;29.48;67.46;100879.53;5064296;27;65325;-37
2021/09/05 00:39:11;;;;;;;11.73;9.15;;;;;;;29.48;67.70;100880.34;5063016;27;70132;-37
2021/09/05 00:41:44;;;;;;;8.95;8.25;;;;;;;29.54;67.07;100889.47;5080719;27;65550;-37
2021/09/05 00:44:18;;;;;;;13.50;9.15;;;;;;;29.55;67.98;100889.25;5062265;27;69495;-37
2021/09/05 00:46:52;;;;;;;9.10;8.45;;;;;;;29.58;67.90;100882.59;5059291;27;65752;-38
2021/09/05 00:49:25;;;;;;;10.45;8.80;;;;;;;29.59;67.70;100879.69;5043989;28;69576;-38
2021/09/05 00:51:59;;;;;;;9.55;8.75;;;;;;;29.62;67.86;100889.25;5062349;27;66596;-38
2021/09/05 00:54:32;;;;;;;10.05;9.00;;;;;;;29.58;68.19;100888.00;5063487;27;69496;-38
2021/09/05 00:57:09;;;;;;;9.77;8.80;;;;;;;29.61;68.24;100887.56;5062129;27;65164;-38
2021/09/05 00:59:47;;;;;;;8.23;7.60;;;;;;;29.65;67.99;100893.44;5060866;27;70303;-38
2021/09/05 01:02:28;;;;;;;10.40;8.23;;;;;;;29.65;68.39;100894.28;5065225;27;66891;-38
2021/09/05 01:05:03;;;;;;;8.10;7.43;;;;;;;29.59;68.72;100889.69;5063978;27;70522;-38
2021/09/05 01:07:43;;;;;;;8.23;7.35;;;;;;;29.68;68.12;100903.84;5063689;27;65665;-38
2021/09/05 01:10:17;;;;;;;7.68;7.18;;;;;;;29.69;68.74;100911.72;5062705;27;68940;-39
2021/09/05 01:12:58;;;;;;;8.07;7.55;;;;;;;29.34;68.25;100854.41;5065220;27;65570;-38
2021/09/05 01:15:32;;;;;;;12.07;7.40;;;;;;;29.72;68.92;100922.09;5061013;27;69445;-37
2021/09/05 01:18:11;;;;;;;7.50;6.90;;;;;;;29.71;68.37;100920.47;5061046;27;66739;-37
2021/09/05 01:21:02;;;;;;;6.78;6.28;;;;;;;29.71;67.50;100920.47;5065344;27;69065;-37
2021/09/05 01:24:10;;;;;;;6.13;5.50;;;;;;;29.58;67.65;100906.94;5047936;27;66290;-38
2021/09/05 01:27:07;;;;;;;6.95;6.45;;;;;;;29.65;67.96;100924.00;5061029;27;69939;-37
2021/09/05 01:30:07;;;;;;;6.63;6.15;;;;;;;29.69;68.64;100930.63;5066750;27;66409;-37
2021/09/05 01:33:01;;;;;;;6.20;5.80;;;;;;;29.72;68.71;100930.22;5072822;27;70294;-38
2021/09/05 01:35:58;;;;;;;6.55;6.05;;;;;;;29.36;69.08;100869.34;5054641;27;65105;-37
2021/09/05 01:39:11;;;;;;;5.70;5.40;;;;;;;29.77;68.80;100935.81;5032994;28;70018;-39
2021/09/05 01:42:07;;;;;;;7.55;7.03;;;;;;;29.88;67.28;100928.94;5060372;27;65605;-38
2021/09/05 01:45:02;;;;;;;7.32;6.82;;;;;;;29.88;67.11;100930.81;5068485;27;70574;-37
2021/09/05 01:48:11;;;;;;;8.05;7.35;;;;;;;29.89;66.72;100933.28;5066919;27;66612;-35
2021/09/05 01:51:10;;;;;;;10.15;7.72;;;;;;;29.90;66.47;100928.75;5048578;27;43347;-36
2021/09/05 01:54:17;;;;;;;8.65;7.95;;;;;;;29.90;66.32;100934.97;5051062;27;66999;-36
2021/09/05 01:57:17;;;;;;;9.57;8.68;;;;;;;29.92;65.75;100929.34;5050427;28;69415;-36
2021/09/05 02:00:17;;;;;;;9.02;8.52;;;;;;;29.91;66.45;100930.38;5066109;27;67365;-37
2021/09/05 02:03:11;;;;;;;9.43;8.63;;;;;;;29.91;66.67;100927.69;5064962;27;70499;-37
2021/09/05 02:06:16;;;;;;;10.80;9.73;;;;;;;29.93;65.51;100922.91;5067155;27;65545;-37
2021/09/05 02:09:19;;;;;;;9.65;8.93;;;;;;;29.94;65.14;100919.13;5067333;27;70360;-37
2021/09/05 02:12:20;;;;;;;9.02;8.43;;;;;;;29.91;64.41;100920.41;5064619;27;65655;-37
2021/09/05 02:15:23;;;;;;;8.63;8.05;;;;;;;29.90;64.90;100926.03;5066440;27;70260;-36
2021/09/05 02:18:20;;;;;;;8.43;7.72;;;;;;;29.60;66.17;100875.13;5067616;27;65296;-37
2021/09/05 02:21:20;;;;;;;8.07;7.28;;;;;;;29.91;65.05;100919.56;5046155;27;69869;-37
2021/09/05 02:24:16;;;;;;;7.13;6.63;;;;;;;29.95;65.26;100926.19;5062437;27;65404;-37
2021/09/05 02:27:14;;;;;;;8.63;7.35;;;;;;;29.99;66.62;100930.97;5072800;27;70441;-36
2021/09/05 02:30:06;;;;;;;8.07;7.47;;;;;;;30.03;66.18;100915.16;5053390;27;64991;-36
2021/09/05 02:33:15;;;;;;;8.85;8.25;;;;;;;30.12;65.02;100929.28;5064908;27;69125;-37
2021/09/05 02:36:26;;;;;;;7.43;6.93;;;;;;;29.78;65.35;100867.22;5068545;27;66875;-37
2021/09/05 02:39:34;;;;;;;8.85;8.23;;;;;;;30.14;65.09;100919.06;5029082;27;69451;-36
2021/09/05 02:42:38;;;;;;;8.63;8.00;;;;;;;30.21;64.75;100931.53;5074513;27;66192;-37
2021/09/05 02:45:13;;;;;;;9.55;8.70;;;;;;;30.21;64.29;100926.13;5065443;27;69152;-37
2021/09/05 02:48:14;;;;;;;8.97;8.47;;;;;;;30.21;64.09;100926.13;5054087;27;65746;-36
2021/09/05 02:51:10;;;;;;;6.32;5.82;;;;;;;30.25;63.47;100924.66;5064917;27;71026;-36
2021/09/05 02:54:09;;;;;;;5.45;5.03;;;;;;;30.21;63.32;100915.28;5065795;27;65466;-36
2021/09/05 02:57:02;;;;;;;6.68;6.28;;;;;;;30.27;63.76;100919.88;5066934;27;69440;-37
2021/09/05 02:59:55;;;;;;;6.90;6.35;;;;;;;30.28;64.32;100921.53;5066160;27;66194;-36
2021/09/05 03:02:55;;;;;;;6.40;5.78;;;;;;;30.36;63.51;100922.34;5062832;27;69684;-37
2021/09/05 03:05:46;;;;;;;5.97;5.57;;;;;;;30.32;63.97;100919.22;5065659;27;66822;-36
2021/09/05 03:08:48;;;;;;;6.88;6.38;;;;;;;30.32;63.18;100915.69;5060411;27;70730;-36
2021/09/05 03:11:50;;;;;;;4.83;4.63;;;;;;;30.37;62.46;100914.00;5067410;27;66224;-36
2021/09/05 03:14:41;;;;;;;5.55;4.80;;;;;;;30.37;62.79;100905.88;5066607;27;69116;-37
2021/09/05 03:17:33;;;;;;;5.25;4.88;;;;;;;30.45;62.79;100910.19;5064479;27;66586;-36
2021/09/05 03:20:25;;;;;;;5.20;4.78;;;;;;;30.48;62.95;100907.09;5059277;27;70737;-35
2021/09/05 03:23:30;;;;;;;6.53;5.60;;;;;;;30.45;63.28;100899.38;5043688;27;65197;-36
2021/09/05 03:26:25;;;;;;;6.38;5.88;;;;;;;30.56;63.90;100914.09;5064704;27;70608;-36
2021/09/05 03:29:29;;;;;;;6.72;6.13;;;;;;;30.57;63.69;100916.59;5057927;27;65957;-36
2021/09/05 03:32:25;;;;;;;6.93;6.50;;;;;;;30.64;63.35;100921.97;5057127;27;70739;-36
2021/09/05 03:35:03;;;;;;;6.43;6.03;;;;;;;30.65;63.24;100916.34;5063496;27;65637;-37
2021/09/05 03:37:56;;;;;;;7.72;6.95;;;;;;;30.64;63.76;100917.38;5067391;27;69815;-36
2021/09/05 03:40:47;;;;;;;6.87;6.30;;;;;;;30.66;63.27;100912.56;5067591;27;66752;-36
2021/09/05 03:43:37;;;;;;;6.68;6.28;;;;;;;30.69;63.17;100905.91;5062883;27;70117;-36
2021/09/05 03:46:31;;;;;;;7.15;6.50;;;;;;;30.75;63.04;100899.59;5054995;27;66385;-36
2021/09/05 03:49:25;;;;;;;6.53;6.13;;;;;;;30.75;63.30;100893.34;5064821;27;69207;-35
2021/09/05 03:51:58;;;;;;;7.22;6.72;;;;;;;30.73;63.23;100883.59;5072453;27;65339;-37
2021/09/05 03:54:31;;;;;;;6.85;6.35;;;;;;;30.85;63.23;100896.44;5045364;27;69973;-36
2021/09/05 03:57:03;;;;;;;6.72;6.07;;;;;;;30.87;63.57;100886.22;5067737;27;66408;-36
2021/09/05 03:59:37;;;;;;;6.60;6.20;;;;;;;30.83;64.53;100874.16;5072652;27;70356;-36
2021/09/05 04:02:15;;;;;;;6.68;6.18;;;;;;;30.84;64.39;100870.41;5072933;27;66680;-36
2021/09/05 04:04:49;;;;;;;8.93;6.03;;;;;;;30.90;64.31;100858.72;5069069;27;69842;-37
2021/09/05 04:07:23;;;;;;;6.20;5.80;;;;;;;30.87;64.81;100848.28;5054752;27;66250;-36
2021/09/05 04:10:10;;;;;;;7.20;6.50;;;;;;;30.97;64.49;100854.03;5064416;27;69926;-36
2021/09/05 04:12:43;;;;;;;6.53;5.95;;;;;;;30.75;64.61;100806.72;5072017;27;65901;-37
2021/09/05 04:15:15;;;;;;;6.55;5.90;;;;;;;30.97;64.02;100837.78;5073813;27;70646;-36
2021/09/05 04:17:47;;;;;;;6.25;5.75;;;;;;;31.04;64.34;100843.16;5075513;27;64365;-40
2021/09/05 04:20:20;;;;;;;6.95;6.35;;;;;;;31.03;64.48;100841.50;5069268;27;70059;-37
2021/09/05 04:22:52;;;;;;;5.65;5.25;;;;;;;31.04;64.51;100833.16;5068580;27;66347;-37
2021/09/05 04:25:23;;;;;;;7.68;5.53;;;;;;;31.03;64.29;100836.06;5073950;27;70134;-37
2021/09/05 04:27:55;;;;;;;;;;;;;;;30.85;64.97;100823.31;5068666;27;65790;-37
2021/09/05 04:30:27;;;;;;;6.20;5.75;;;;;;;31.05;64.26;100828.56;5069705;27;70115;-38
2021/09/05 04:32:58;;;;;;;;;;;;;;;30.88;64.82;100820.19;5065664;27;65390;-35
2021/09/05 04:35:29;;;;;;;5.78;5.45;;;;;;;31.13;64.31;100804.72;5066633;27;69274;-36
2021/09/05 04:38:01;;;;;;;;;;;;;;;30.96;65.07;100808.25;5063272;27;66413;-36
2021/09/05 04:40:32;;;;;;;6.20;5.78;;;;;;;31.20;64.28;100809.22;5067867;27;69410;-38
2021/09/05 04:43:04;;;;;;;6.03;5.55;;;;;;;31.22;64.27;100799.81;5064602;27;67223;-36
2021/09/05 04:45:36;;;;;;;5.40;5.07;;;;;;;31.28;64.27;100811.66;5063543;27;69951;-38
2021/09/05 04:48:08;;;;;;;5.72;5.32;;;;;;;31.28;64.60;100817.06;5064169;27;66435;-37
2021/09/05 04:50:41;;;;;;;6.00;5.60;;;;;;;31.29;64.39;100799.78;5067953;27;69931;-37
2021/09/05 04:53:15;;;;;;;5.85;5.40;;;;;;;31.38;64.70;100801.16;5068113;27;66332;-37
2021/09/05 04:55:50;;;;;;;5.50;5.00;;;;;;;31.39;64.27;100813.66;5069106;27;69547;-36
2021/09/05 04:58:22;;;;;;;5.82;5.05;;;;;;;31.41;64.51;100803.41;5067583;27;67183;-36
2021/09/05 05:00:54;;;;;;;;;;;;;;;31.23;65.47;100795.22;5065932;27;70378;-36
2021/09/05 05:03:26;;;;;;;5.72;5.32;;;;;;;31.44;64.76;100789.41;5059967;27;67063;-38
2021/09/05 05:06:19;;;;;;;4.63;4.32;;;;;;;31.42;63.74;100785.25;5051198;27;70006;-38
2021/09/05 05:08:52;;;;;;;3.40;3.20;;;;;;;31.09;62.54;100741.22;5066607;27;65520;-37
2021/09/05 05:11:25;;;;;;;3.15;2.95;;;;;;;31.22;60.98;100772.72;5059402;27;70705;-37
2021/09/05 05:13:58;;;;;;;2.75;2.20;;;;;;;31.11;59.91;100774.31;5060194;27;65989;-37
2021/09/05 05:16:31;;;;;;;2.10;1.90;;;;;;;31.03;58.72;100769.16;5065593;27;69134;-36
2021/09/05 05:19:03;;;;;;;2.05;1.70;;;;;;;30.94;58.01;100774.06;5059157;27;66221;-38
2021/09/05 05:21:37;;;;;;;1.80;1.30;;;;;;;30.79;57.17;100759.19;5068672;27;70414;-38
2021/09/05 05:24:09;;;;;;;1.40;1.30;;;;;;;30.76;56.31;100770.44;5069152;27;65793;-38
2021/09/05 05:26:41;;;;;;;;;;;;;;;30.33;56.64;100760.41;5067419;27;69921;-36
2021/09/05 05:29:12;;;;;;;0.77;0.77;;;;;;;30.51;56.12;100757.78;5064063;27;67537;-38
2021/09/05 05:31:45;;;;;;;1.00;0.90;;;;;;;30.53;54.98;100750.22;5067178;27;69424;-38
2021/09/05 05:34:18;;;;;;;0.65;0.60;;;;;;;30.58;55.33;100752.28;5063195;27;65568;-38
2021/09/05 05:36:50;;;;;;;0.57;0.57;;;;;;;30.59;54.75;100738.53;5048879;27;69833;-38
2021/09/05 05:39:22;;;;;;;0.98;0.90;;;;;;;30.54;53.36;100718.59;5066135;27;66185;-38
2021/09/05 05:41:54;;;;;;;;;;;;;;;30.33;52.70;100719.81;5067618;27;70679;-37
2021/09/05 05:44:26;;;;;;;0.63;0.50;;;;;;;30.54;51.69;100722.13;5065816;27;66870;-38
2021/09/05 05:46:58;;;;;;;0.40;0.40;;;;;;;30.59;51.80;100714.19;5065678;27;69456;-38
2021/09/05 05:49:32;;;;;;;0.60;0.60;;;;;;;30.62;52.21;100716.44;5064635;27;66173;-38
2021/09/05 05:52:06;;;;;;;0.68;0.40;;;;;;;30.61;50.87;100703.94;5065476;27;70174;-38
2021/09/05 05:54:40;;;;;;;0.70;0.60;;;;;;;30.66;51.13;100705.97;5065628;27;64427;-37
2021/09/05 05:57:13;;;;;;;0.43;0.40;;;;;;;30.64;50.08;100698.06;5065937;27;69574;-38
2021/09/05 05:59:45;;;;;;;0.30;0.30;;;;;;;30.61;48.89;100692.28;5051333;27;66245;-38
2021/09/05 06:02:18;;;;;;;1.05;0.35;;;;;;;30.63;48.72;100691.00;5066820;27;69609;-37
2021/09/05 06:04:52;;;;;;;0.45;0.40;;;;;;;30.61;48.67;100687.69;5064128;27;65780;-37
2021/09/05 06:07:27;;;;;;;0.47;0.47;;;;;;;30.64;48.24;100681.00;5065652;27;70900;-37
2021/09/05 06:10:00;;;;;;;0.45;0.30;;;;;;;30.62;47.92;100678.53;5053318;27;65605;-38
2021/09/05 06:12:33;;;;;;;0.30;0.30;;;;;;;30.59;47.88;100668.16;5065071;27;70407;-37
2021/09/05 06:15:06;;;;;;;0.52;0.30;;;;;;;30.59;47.49;100667.31;5068289;27;65516;-37
2021/09/05 06:17:39;;;;;;;0.40;0.30;;;;;;;30.56;47.53;100663.16;5072884;27;69674;-37
2021/09/05 06:20:12;;;;;;;0.20;0.20;;;;;;;30.56;46.47;100652.34;5065236;27;65991;-37
2021/09/05 06:22:44;;;;;;;0.43;0.30;;;;;;;30.48;46.52;100639.13;5068380;27;70878;-37
2021/09/05 06:25:16;;;;;;;;;;;;;;;30.24;46.21;100638.91;5066738;27;66224;-38
2021/09/05 06:27:49;;;;;;;0.30;0.22;;;;;;;30.44;46.82;100632.47;5063389;27;70219;-37
2021/09/05 06:30:21;;;;;;;0.20;0.20;;;;;;;30.44;46.64;100616.25;5072640;27;66585;-38
2021/09/05 06:32:54;;;;;;;0.20;0.20;;;;;;;30.42;45.58;100612.91;5074614;27;69520;-37
2021/09/05 06:35:38;;;;;;;0.20;0.20;;;;;;;30.48;46.11;100617.47;5070374;27;64640;-38
2021/09/05 06:38:11;;;;;;;0.40;0.30;;;;;;;30.46;45.08;100604.16;5065506;27;70108;-37
2021/09/05 06:40:43;;;;;;;0.20;0.20;;;;;;;30.49;46.14;100602.88;5064420;27;65385;-37
2021/09/05 06:43:14;;;;;;;;;;;;;;;30.21;45.62;100604.16;5070841;27;70288;-37
2021/09/05 06:45:47;;;;;;;0.40;0.20;;;;;;;30.45;46.48;100590.81;5069511;27;66368;-38
2021/09/05 06:48:40;;;;;;;0.40;0.40;;;;;;;30.45;45.85;100594.38;5064696;27;69235;-37
2021/09/05 06:51:13;;;;;;;0.40;0.30;;;;;;;30.46;45.96;100589.78;5069582;27;65575;-37
2021/09/05 06:53:46;;;;;;;0.30;0.30;;;;;;;30.49;45.60;100589.34;5068848;27;70540;-37
2021/09/05 06:56:18;;;;;;;0.40;0.40;;;;;;;30.45;44.49;100590.81;5066692;27;65989;-38
2021/09/05 06:58:49;;;;;;;;;;;;;;;30.18;45.09;100591.06;5071006;27;69567;-38
2021/09/05 07:01:22;;;;;;;0.60;0.40;;;;;;;30.43;45.31;100585.66;5070714;27;66175;-38
2021/09/05 07:04:01;;;;;;;0.50;0.40;;;;;;;30.45;45.28;100580.84;5066070;27;69985;-38
2021/09/05 07:06:33;;;;;;;0.60;0.40;;;;;;;30.43;44.50;100568.59;5064084;27;66426;-38
2021/09/05 07:09:05;;;;;;;0.85;0.50;;;;;;;30.47;45.29;100567.06;5076665;27;70212;-38
2021/09/05 07:11:38;;;;;;;1.17;0.40;;;;;;;30.47;44.45;100567.06;5066997;27;66881;-37
2021/09/05 07:14:10;;;;;;;0.47;0.30;;;;;;;30.45;44.77;100559.19;5062519;27;69041;-38
2021/09/05 07:16:43;;;;;;;0.60;0.50;;;;;;;30.49;44.69;100559.56;5032761;27;66018;-37
2021/09/05 07:19:15;;;;;;;0.40;0.40;;;;;;;30.49;44.63;100556.84;5051673;27;69206;-37
2021/09/05 07:21:49;;;;;;;0.35;0.30;;;;;;;30.49;44.55;100543.31;5067195;27;66488;-37
2021/09/05 07:24:25;;;;;;;0.90;0.30;;;;;;;30.51;43.91;100538.53;5062061;27;69981;-37
2021/09/05 07:26:58;;;;;;;0.50;0.30;;;;;;;30.52;44.17;100537.47;5064663;27;66463;-37
2021/09/05 07:29:31;;;;;;;1.38;0.30;;;;;;;30.53;43.66;100536.38;5067289;27;70256;-37
2021/09/05 07:32:05;;;;;;;0.57;0.30;;;;;;;30.54;43.84;100532.66;5064095;27;65472;-36
2021/09/05 07:34:38;;;;;;;5.10;0.30;;;;;;;30.50;44.16;100534.16;5062339;27;70314;-38
2021/09/05 07:37:11;;;;;;;0.30;0.30;;;;;;;30.55;43.06;100536.19;5064130;27;65777;-37
2021/09/05 07:39:44;;;;;;;0.50;0.30;;;;;;;30.51;43.26;100525.00;5065850;27;70136;-37
2021/09/05 07:42:17;;;;;;;1.67;0.35;;;;;;;30.53;43.73;100533.69;5063756;27;66452;-36
2021/09/05 07:44:50;;;;;;;2.58;0.38;;;;;;;30.58;43.87;100531.13;5061757;27;70103;-37
2021/09/05 07:47:23;;;;;;;2.47;0.60;;;;;;;30.57;45.42;100532.19;5061901;27;66754;-37
2021/09/05 07:49:56;;;;;;;3.25;0.57;;;;;;;30.61;45.73;100524.44;5066547;27;68049;-37
2021/09/05 07:52:29;;;;;;;2.03;0.75;;;;;;;30.65;46.44;100528.38;5045643;27;66459;-38
2021/09/05 07:55:03;;;;;;;4.25;0.57;;;;;;;30.66;46.45;100517.28;5066176;27;69323;-38
2021/09/05 07:57:36;;;;;;;3.95;0.73;;;;;;;30.65;46.34;100521.06;5064946;27;66364;-37
2021/09/05 08:00:11;;;;;;;1.75;0.63;;;;;;;30.65;46.56;100520.25;5065919;27;70471;-39
2021/09/05 08:02:45;;;;;;;1.85;0.70;;;;;;;30.62;46.39;100510.69;5069131;27;65950;-39
2021/09/05 08:05:20;;;;;;;3.03;0.60;;;;;;;30.69;45.86;100516.84;5066200;27;70057;-37
2021/09/05 08:07:54;;;;;;;1.17;0.50;;;;;;;30.72;45.48;100515.56;5059600;27;65480;-39
2021/09/05 08:10:28;;;;;;;4.45;0.50;;;;;;;30.79;45.80;100512.78;5056426;27;70137;-39
2021/09/05 08:13:01;;;;;;;2.65;0.70;;;;;;;30.86;45.34;100510.81;5061820;27;66193;-38
2021/09/05 08:15:34;;;;;;;1.30;0.88;;;;;;;30.91;45.87;100513.66;5065867;27;69345;-38
2021/09/05 08:18:07;;;;;;;3.90;1.20;;;;;;;30.90;45.54;100512.84;5062758;27;66032;-38
2021/09/05 08:20:45;;;;;;;3.63;1.00;;;;;;;30.95;45.54;100509.44;5066030;27;71277;-38
2021/09/05 08:23:17;;;;;;;3.47;1.48;;;;;;;30.91;45.80;100492.00;5066678;27;65959;-38
2021/09/05 08:25:51;;;;;;;1.45;1.35;;;;;;;30.98;46.86;100492.75;5065780;27;70931;-38
2021/09/05 08:28:25;;;;;;;2.38;2.08;;;;;;;31.05;49.69;100488.03;5066834;27;66531;-38
2021/09/05 08:30:58;;;;;;;5.95;3.22;;;;;;;31.28;52.47;100487.28;5064475;27;69281;-38
2021/09/05 08:33:35;;;;;;;10.95;10.00;;;;;;;31.37;53.53;100488.63;5065046;27;66848;-38
2021/09/05 08:36:08;;;;;;;8.55;7.68;;;;;;;31.55;55.40;100487.72;5066546;27;70861;-40
2021/09/05 08:38:45;;;;;;;6.45;6.00;;;;;;;31.70;57.40;100483.69;5078106;27;66176;-38
2021/09/05 08:41:19;;;;;;;7.00;6.57;;;;;;;31.85;55.74;100478.66;5067337;27;71036;-38
2021/09/05 08:43:52;;;;;;;6.75;6.25;;;;;;;31.91;56.61;100475.00;5062912;27;66908;-39
2021/09/05 08:46:26;;;;;;;7.13;6.60;;;;;;;32.03;57.82;100483.94;5067101;27;69680;-39
2021/09/05 08:49:05;;;;;;;9.52;7.55;;;;;;;32.09;56.31;100471.31;5064793;27;66606;-38
2021/09/05 08:51:38;;;;;;;10.13;8.68;;;;;;;32.19;57.21;100479.69;5056649;27;71245;-38
2021/09/05 08:54:15;;;;;;;7.35;6.85;;;;;;;32.28;56.90;100480.13;5070210;27;65582;-39
2021/09/05 08:56:53;;;;;;;7.57;7.07;;;;;;;32.38;56.71;100480.38;5067225;27;69814;-39
2021/09/05 08:59:28;;;;;;;8.73;7.95;;;;;;;32.45;56.15;100475.59;5066357;27;65677;-41
2021/09/05 09:02:08;;;;;;;10.30;9.30;;;;;;;32.49;55.07;100492.28;5063074;27;70195;-38
2021/09/05 09:04:49;;;;;;;11.52;8.75;;;;;;;32.53;56.00;100482.59;5062026;27;64641;-40
2021/09/05 09:07:22;;;;;;;10.45;9.43;;;;;;;32.57;56.78;100482.91;5071991;27;70686;-40
2021/09/05 09:10:01;;;;;;;10.65;9.65;;;;;;;32.67;55.79;100483.13;5069505;27;66270;-38
2021/09/05 09:12:44;;;;;;;9.38;8.63;;;;;;;32.75;56.09;100490.88;5068294;27;69302;-40
2021/09/05 09:15:21;;;;;;;9.55;8.65;;;;;;;32.79;56.11;100488.50;5073237;27;65055;-39
2021/09/05 09:18:05;;;;;;;9.55;8.70;;;;;;;32.51;55.81;100445.88;5066338;27;69375;-40
2021/09/05 09:20:39;;;;;;;9.13;8.43;;;;;;;32.81;56.19;100498.06;5065523;27;65434;-40
2021/09/05 09:23:19;;;;;;;9.77;9.07;;;;;;;32.59;55.49;100464.50;5056192;27;69919;-39
2021/09/05 09:25:59;;;;;;;8.98;8.15;;;;;;;32.78;55.00;100508.59;5073089;27;66238;-40
2021/09/05 09:28:44;;;;;;;8.75;7.95;;;;;;;32.77;56.06;100510.50;5071827;27;70773;-40
2021/09/05 09:31:35;;;;;;;7.68;7.00;;;;;;;32.66;56.97;100493.16;5071595;27;65419;-42
2021/09/05 09:34:26;;;;;;;7.72;6.95;;;;;;;32.68;56.20;100512.78;5070398;27;70236;-41
2021/09/05 09:37:01;;;;;;;15.48;6.65;;;;;;;32.65;56.49;100523.28;5058020;27;66293;-40
2021/09/05 09:39:42;;;;;;;7.90;7.05;;;;;;;32.69;56.21;100524.44;5081432;27;68913;-40
2021/09/05 09:42:38;;;;;;;7.43;6.85;;;;;;;32.65;55.60;100536.84;5078430;27;66066;-39
2021/09/05 09:45:16;;;;;;;7.00;6.43;;;;;;;32.40;56.49;100499.09;5069043;27;69008;-39
2021/09/05 09:47:52;;;;;;;6.90;6.40;;;;;;;32.33;56.92;100482.97;5073359;27;64842;-40
2021/09/05 09:50:24;;;;;;;6.10;5.70;;;;;;;32.64;56.99;100537.94;5072639;27;70073;-40
2021/09/05 09:52:58;;;;;;;6.15;5.70;;;;;;;32.63;57.88;100539.00;5068938;27;66962;-40
2021/09/05 09:55:31;;;;;;;7.03;6.53;;;;;;;32.61;57.95;100532.97;5072622;27;71001;-40
2021/09/05 09:58:04;;;;;;;6.60;6.10;;;;;;;32.58;58.23;100528.84;5071453;27;65751;-40
2021/09/05 10:00:37;;;;;;;6.93;6.53;;;;;;;32.57;58.50;100527.22;5073877;27;69978;-40
2021/09/05 10:03:11;;;;;;;7.30;6.47;;;;;;;32.58;59.18;100534.28;5072962;27;66428;-40
2021/09/05 10:05:45;;;;;;;7.00;6.40;;;;;;;32.56;58.62;100541.84;5076892;27;69247;-44
2021/09/05 10:08:19;;;;;;;6.30;5.80;;;;;;;32.57;59.19;100548.09;5069939;27;65033;-40
2021/09/05 10:10:58;;;;;;;8.88;6.32;;;;;;;32.45;59.77;100529.91;5063930;27;70558;-42
2021/09/05 10:13:33;;;;;;;11.00;6.43;;;;;;;32.33;60.36;100510.09;5064475;27;65234;-40
2021/09/05 10:16:07;;;;;;;13.43;6.35;;;;;;;32.56;60.42;100557.31;5082596;27;70375;-42
2021/09/05 10:18:44;;;;;;;7.25;6.40;;;;;;;32.53;59.63;100544.22;5075194;27;66721;-40
2021/09/05 10:21:19;;;;;;;8.45;6.05;;;;;;;32.34;60.74;100516.34;5068379;27;70086;-39
2021/09/05 10:23:57;;;;;;;9.07;8.25;;;;;;;32.27;60.25;100520.03;5054692;27;66379;-40
2021/09/05 10:26:31;;;;;;;10.48;8.15;;;;;;;32.55;60.50;100566.53;5062468;27;70416;-40
2021/09/05 10:29:12;;;;;;;;;;;;;;;32.32;61.89;100584.47;5074736;27;66319;-41
2021/09/05 10:31:44;;;;;;;13.57;12.52;;;;;;;32.56;61.41;100589.88;5073720;27;70535;-40
2021/09/05 10:34:35;;;;;;;;;;;;;;;32.36;61.50;100601.09;5081396;27;66333;-40
2021/09/05 10:37:15;;;;;;;25.63;20.50;;;;;;;32.51;60.81;100598.75;5071954;27;69524;-39
2021/09/05 10:40:50;;;;;;;26.05;22.75;;;;;;;32.46;61.05;100613.06;5082290;27;65520;-40
2021/09/05 10:43:51;;;;;;;30.00;26.83;;;;;;;32.44;60.38;100608.88;5076825;27;70166;-40
2021/09/05 10:46:27;;;;;;;30.98;27.23;;;;;;;32.52;60.25;100616.69;5088032;27;66181;-40
2021/09/05 10:49:01;;;;;;;35.60;31.40;;;;;;;32.44;60.04;100609.72;5090351;27;70976;-39
2021/09/05 10:52:36;;;;;;;42.28;32.05;;;;;;;32.36;60.27;100618.22;5078473;27;66774;-40
2021/09/05 10:55:09;;;;;;;38.53;32.20;;;;;;;32.45;60.10;100619.50;5031926;28;69873;-39
2021/09/05 10:57:46;;;;;;;40.17;34.25;;;;;;;32.43;59.61;100627.06;5017733;28;65563;-40
2021/09/05 11:00:33;;;;;;;33.55;29.05;;;;;;;32.43;60.40;100654.22;5035597;28;69499;-40
2021/09/05 11:03:11;;;;;;;;;;;;;;;32.15;61.21;100670.34;5019133;28;66177;-41
2021/09/05 11:05:43;;;;;;;21.27;19.15;;;;;;;32.35;60.57;100675.47;5051063;27;70102;-40
2021/09/05 11:08:25;;;;;;;14.55;13.13;;;;;;;32.28;60.62;100675.56;5070436;27;66664;-41
2021/09/05 11:10:57;;;;;;;13.82;12.55;;;;;;;32.29;60.48;100677.22;5070215;27;70206;-40
2021/09/05 11:13:48;;;;;;;;;;;;;;;32.02;60.95;100680.38;5069915;27;66416;-40
2021/09/05 11:16:21;;;;;;;10.35;9.57;;;;;;;32.20;60.78;100678.63;5071198;27;69661;-39
2021/09/05 11:18:54;;;;;;;10.05;9.27;;;;;;;32.15;61.29;100679.34;5072650;27;65988;-40
2021/09/05 11:21:29;;;;;;;8.18;7.47;;;;;;;32.14;60.97;100690.41;5074179;27;70103;-40
2021/09/05 11:24:01;;;;;;;6.60;6.00;;;;;;;32.13;60.63;100688.78;5078193;27;66558;-41
2021/09/05 11:26:36;;;;;;;5.70;5.30;;;;;;;32.04;60.65;100685.56;5064786;27;70194;-40
2021/09/05 11:29:24;;;;;;;;;;;;;;;31.79;61.00;100691.97;5071976;27;66268;-40
2021/09/05 11:32:10;;;;;;;4.22;3.92;;;;;;;31.94;60.11;100718.69;5058445;27;70957;-40
2021/09/05 11:34:55;;;;;;;4.07;3.78;;;;;;;31.89;60.82;100737.50;5073496;27;65521;-40
2021/09/05 11:37:33;;;;;;;3.47;3.17;;;;;;;31.91;61.21;100750.84;5069524;27;69081;-39
2021/09/05 11:40:07;;;;;;;3.33;3.10;;;;;;;31.66;61.24;100726.56;5067084;27;65378;-40
2021/09/05 11:42:54;;;;;;;5.35;3.00;;;;;;;31.78;60.86;100784.41;5075652;27;69325;-41
2021/09/05 11:45:38;;;;;;;3.28;2.70;;;;;;;31.60;61.04;100783.38;5067275;27;65448;-39
2021/09/05 11:48:11;;;;;;;3.08;2.88;;;;;;;31.66;60.99;100806.03;5074143;27;70395;-38
2021/09/05 11:50:43;;;;;;;5.00;4.10;;;;;;;31.63;61.01;100816.53;5068825;27;66132;-39
2021/09/05 11:53:19;;;;;;;4.18;3.80;;;;;;;31.50;61.46;100793.09;5075631;27;69818;-39
2021/09/05 11:55:55;;;;;;;4.32;3.65;;;;;;;31.48;61.67;100784.34;5079701;27;66030;-41
2021/09/05 11:58:29;;;;;;;4.38;4.07;;;;;;;31.41;61.38;100792.56;5075030;27;70017;-40
2021/09/05 12:01:04;;;;;;;7.13;5.15;;;;;;;31.15;61.36;100770.09;5081574;27;65559;-39
2021/09/05 12:03:37;;;;;;;6.10;5.70;;;;;;;31.38;62.07;100817.41;5078724;27;69256;-39
2021/09/05 12:06:12;;;;;;;5.82;5.38;;;;;;;31.36;61.80;100824.94;5084447;27;66066;-39
2021/09/05 12:08:47;;;;;;;5.07;4.68;;;;;;;31.38;62.54;100833.69;5077509;27;70164;-41
2021/09/05 12:11:20;;;;;;;3.85;3.55;;;;;;;31.33;63.01;100836.19;5070422;27;65526;-40
2021/09/05 12:13:57;;;;;;;3.50;2.65;;;;;;;31.29;64.03;100857.50;5084700;27;70137;-38
2021/09/05 12:16:30;;;;;;;3.00;2.80;;;;;;;31.32;63.89;100850.81;5066416;27;66217;-38
2021/09/05 12:19:08;;;;;;;2.97;2.78;;;;;;;31.05;64.22;100813.13;5074820;27;70345;-39
2021/09/05 12:21:42;;;;;;;5.38;2.67;;;;;;;31.46;64.92;100884.06;5071843;27;66104;-39
2021/09/05 12:24:21;;;;;;;3.22;2.58;;;;;;;31.47;64.71;100881.13;5086192;27;69380;-40